Time;durP1;ratioP1;P1;durP2;ratioP2;P2;SDS_P1;SDS_P2;PMS_P1;PMS_P2;Temp;Humidity;BMP_temperature;BMP_pressure;BME280_temperature;BME280_humidity;BME280_pressure;Samples;Min_cycle;Max_cycle;Signal;HPM_P1;HPM_P2
2022/12/19 00:01:05;;;;;;;35.60;25.92;;;-3.30;99.90;;;;;;5096724;28;20179;-52
2022/12/19 00:03:31;;;;;;;36.92;26.25;;;-3.30;99.90;;;;;;5099183;28;20209;-49
2022/12/19 00:06:01;;;;;;;37.80;27.00;;;-3.30;99.90;;;;;;5099257;28;20188;-52
2022/12/19 00:08:27;;;;;;;36.08;26.80;;;-3.40;99.90;;;;;;5098700;28;20188;-49
2022/12/19 00:10:56;;;;;;;35.42;26.45;;;-3.40;99.90;;;;;;5096423;28;20378;-53
2022/12/19 00:13:22;;;;;;;33.70;26.67;;;-3.40;99.90;;;;;;5100763;27;20361;-50
2022/12/19 00:15:48;;;;;;;35.72;25.42;;;-3.40;99.90;;;;;;5095784;28;20227;-50
2022/12/19 00:18:13;;;;;;;35.50;26.13;;;-3.30;99.90;;;;;;5098241;28;20194;-50
2022/12/19 00:20:39;;;;;;;34.23;26.13;;;-3.30;99.90;;;;;;5098285;28;20184;-48
2022/12/19 00:23:04;;;;;;;33.17;25.10;;;-3.30;99.90;;;;;;5099801;28;20212;-52
2022/12/19 00:25:30;;;;;;;33.80;24.90;;;-3.40;99.90;;;;;;5097823;28;20187;-52
2022/12/19 00:27:55;;;;;;;31.00;24.00;;;-3.40;99.90;;;;;;5097767;28;20566;-50
2022/12/19 00:30:21;;;;;;;31.90;25.43;;;-3.40;99.90;;;;;;5096852;28;20207;-50
2022/12/19 00:32:46;;;;;;;31.43;25.20;;;-3.40;99.90;;;;;;5099598;28;20180;-45
2022/12/19 00:35:13;;;;;;;34.93;25.50;;;-3.40;99.90;;;;;;5097623;28;20215;-53
2022/12/19 00:37:38;;;;;;;33.92;25.30;;;-3.40;99.90;;;;;;5096114;28;20245;-51
2022/12/19 00:40:05;;;;;;;32.30;24.17;;;-3.40;99.90;;;;;;5095603;28;20478;-48
2022/12/19 00:42:31;;;;;;;33.70;23.88;;;-3.40;99.90;;;;;;5098978;28;20537;-51
2022/12/19 00:44:56;;;;;;;35.17;25.37;;;-3.40;99.90;;;;;;5097970;28;20195;-52
2022/12/19 00:47:22;;;;;;;32.40;24.30;;;-3.50;99.90;;;;;;5099346;28;20272;-51
2022/12/19 00:49:47;;;;;;;34.63;23.60;;;-3.50;99.90;;;;;;5098945;28;20183;-51
2022/12/19 00:52:13;;;;;;;34.17;23.40;;;-3.50;99.90;;;;;;5088730;28;20916;-51
2022/12/19 00:54:39;;;;;;;35.50;25.23;;;-3.50;99.90;;;;;;5090255;28;20759;-52
2022/12/19 00:57:04;;;;;;;33.57;24.43;;;-3.60;99.90;;;;;;5097774;28;20334;-51
2022/12/19 00:59:30;;;;;;;30.40;23.37;;;-3.60;99.90;;;;;;5094640;28;20180;-47
2022/12/19 01:01:56;;;;;;;34.60;24.90;;;-3.60;99.90;;;;;;5097503;28;20645;-53
2022/12/19 01:04:21;;;;;;;33.37;24.10;;;-3.60;99.90;;;;;;5097684;28;20694;-49
2022/12/19 01:06:48;;;;;;;33.87;23.27;;;-3.60;99.90;;;;;;5096962;28;20919;-52
2022/12/19 01:09:14;;;;;;;33.97;23.35;;;-3.60;99.90;;;;;;5096987;28;20266;-52
2022/12/19 01:14:24;;;;;;;31.77;25.00;;;-3.60;99.90;;;;;;5098312;28;21131;-50
2022/12/19 01:16:50;;;;;;;30.33;23.80;;;-3.70;99.90;;;;;;5099140;28;20331;-53
2022/12/19 01:19:16;;;;;;;29.48;22.15;;;-3.70;99.90;;;;;;5095417;28;20224;-52
2022/12/19 01:21:42;;;;;;;30.57;24.23;;;-3.70;99.90;;;;;;5099031;28;21137;-52
2022/12/19 01:24:07;;;;;;;33.50;24.73;;;-3.70;99.90;;;;;;5095138;28;20200;-48
2022/12/19 01:26:33;;;;;;;29.10;23.57;;;-3.70;99.90;;;;;;5099897;28;20180;-49
2022/12/19 01:28:59;;;;;;;30.43;24.47;;;-3.70;99.90;;;;;;5101572;28;20240;-49
2022/12/19 01:31:24;;;;;;;30.80;22.10;;;-3.70;99.90;;;;;;5102096;28;20519;-50
2022/12/19 01:33:50;;;;;;;30.77;23.37;;;-3.80;99.90;;;;;;5101472;28;20184;-51
2022/12/19 01:36:15;;;;;;;29.30;22.37;;;-3.80;99.90;;;;;;5101963;28;20258;-55
2022/12/19 01:38:41;;;;;;;27.33;22.93;;;-3.80;99.90;;;;;;5100987;28;20259;-52
2022/12/19 01:41:07;;;;;;;31.40;25.17;;;-3.80;99.90;;;;;;5100098;28;20202;-53
2022/12/19 01:44:02;;;;;;;29.85;25.40;;;-3.80;99.90;;;;;;5101244;28;20202;-48
2022/12/19 01:46:34;;;;;;;33.78;25.20;;;-3.80;99.90;;;;;;5100657;28;20325;-51
2022/12/19 01:49:01;;;;;;;31.23;23.10;;;-3.80;99.90;;;;;;5102487;28;20198;-52
2022/12/19 01:51:44;;;;;;;30.63;23.27;;;-3.80;99.90;;;;;;5100737;28;20184;-50
2022/12/19 01:54:16;;;;;;;33.95;24.45;;;-3.70;99.90;;;;;;5101169;28;20537;-54
2022/12/19 01:56:45;;;;;;;31.40;23.35;;;-3.80;99.90;;;;;;5100097;28;20488;-51
2022/12/19 01:59:23;;;;;;;31.70;23.73;;;-3.80;99.90;;;;;;5099630;28;20232;-53
2022/12/19 02:01:54;;;;;;;26.67;22.02;;;-3.80;99.90;;;;;;5101691;28;20714;-47
2022/12/19 02:04:20;;;;;;;28.88;22.58;;;-3.70;99.90;;;;;;5100683;28;20203;-47
2022/12/19 02:06:47;;;;;;;28.33;22.25;;;-3.70;99.90;;;;;;5101405;28;20188;-50
2022/12/19 02:09:13;;;;;;;27.50;22.17;;;-3.70;99.90;;;;;;5099310;28;20866;-47
2022/12/19 02:11:39;;;;;;;28.77;23.10;;;-3.70;99.90;;;;;;5098742;28;20180;-50
2022/12/19 02:14:04;;;;;;;27.57;22.87;;;-3.70;99.90;;;;;;5098749;28;20264;-52
2022/12/19 02:16:37;;;;;;;29.67;23.00;;;-3.70;99.90;;;;;;5103056;28;20469;-52
2022/12/19 02:19:40;;;;;;;31.48;20.75;;;-3.80;99.90;;;;;;5095507;27;20744;-53
2022/12/19 02:22:18;;;;;;;25.40;21.02;;;-3.70;99.90;;;;;;5101120;28;20208;-48
2022/12/19 02:24:58;;;;;;;26.45;21.00;;;-3.70;99.90;;;;;;5101876;28;20199;-52
2022/12/19 02:27:45;;;;;;;30.05;22.65;;;-3.70;99.90;;;;;;5098334;28;20172;-54
2022/12/19 02:30:17;;;;;;;27.58;22.25;;;-3.70;99.90;;;;;;5101093;28;20180;-52
2022/12/19 02:33:39;;;;;;;26.60;21.58;;;-3.70;99.90;;;;;;5101400;28;20183;-49
2022/12/19 02:36:30;;;;;;;23.63;21.00;;;-3.70;99.90;;;;;;5011871;28;20772;-51
2022/12/19 02:39:29;;;;;;;26.65;20.85;;;-3.70;99.90;;;;;;5001509;28;20646;-50
2022/12/19 02:41:57;;;;;;;26.05;19.77;;;-3.70;99.90;;;;;;5000628;28;20195;-49
2022/12/19 02:44:28;;;;;;;28.38;21.73;;;-3.60;99.90;;;;;;5007608;28;20378;-51
2022/12/19 02:46:56;;;;;;;26.60;19.65;;;-3.60;99.90;;;;;;5003450;28;20222;-48
2022/12/19 02:49:22;;;;;;;28.45;20.40;;;-3.60;99.90;;;;;;5002473;28;20188;-49
2022/12/19 02:51:48;;;;;;;23.57;20.67;;;-3.50;99.90;;;;;;4999807;28;20649;-53
2022/12/19 02:54:14;;;;;;;28.60;20.60;;;-3.50;99.90;;;;;;5002958;28;20480;-49
2022/12/19 02:56:51;;;;;;;30.58;21.50;;;-3.50;99.90;;;;;;5017861;28;20186;-50
2022/12/19 02:59:53;;;;;;;30.50;21.10;;;-3.50;99.90;;;;;;5001163;28;20194;-47
2022/12/19 03:02:48;;;;;;;28.90;20.77;;;-3.50;99.90;;;;;;5003098;28;20210;-44
2022/12/19 03:05:33;;;;;;;28.92;21.15;;;-3.50;99.90;;;;;;5002038;28;20221;-54
2022/12/19 03:08:15;;;;;;;29.77;20.98;;;-3.40;99.90;;;;;;5101702;28;20180;-48
2022/12/19 03:11:14;;;;;;;26.58;19.83;;;-3.40;99.90;;;;;;5097313;28;20184;-50
2022/12/19 03:14:00;;;;;;;25.58;21.33;;;-3.40;99.90;;;;;;5065069;28;20199;-50
2022/12/19 03:16:26;;;;;;;27.85;21.80;;;-3.40;99.90;;;;;;5100622;28;20292;-47
2022/12/19 03:18:53;;;;;;;28.15;21.10;;;-3.40;99.90;;;;;;5097756;28;20766;-47
2022/12/19 03:21:39;;;;;;;29.13;22.00;;;-3.30;99.90;;;;;;5099833;28;20591;-55
2022/12/19 03:24:08;;;;;;;30.90;22.38;;;-3.30;99.90;;;;;;5082605;28;20222;-47
2022/12/19 03:26:40;;;;;;;23.33;20.23;;;-3.30;99.90;;;;;;5095489;28;20248;-50
2022/12/19 03:29:12;;;;;;;30.45;21.90;;;-3.20;99.90;;;;;;5095238;28;20616;-51
2022/12/19 03:31:39;;;;;;;29.33;22.65;;;-3.20;99.90;;;;;;5099569;28;20487;-49
2022/12/19 03:34:23;;;;;;;28.60;21.35;;;-3.20;99.90;;;;;;5099909;28;20701;-49
2022/12/19 03:36:54;;;;;;;35.97;22.80;;;-3.10;99.90;;;;;;5100049;28;20188;-51
2022/12/19 03:39:20;;;;;;;28.83;21.90;;;-3.20;99.90;;;;;;5100714;28;20176;-50
2022/12/19 03:44:37;;;;;;;30.05;22.85;;;-3.10;99.90;;;;;;5100308;28;20257;-51
2022/12/19 03:47:22;;;;;;;32.38;23.35;;;-3.10;99.90;;;;;;5100063;28;20187;-50
2022/12/19 03:49:49;;;;;;;31.73;23.00;;;-3.10;99.90;;;;;;5100853;28;20188;-50
2022/12/19 03:52:44;;;;;;;31.13;22.80;;;-3.10;99.90;;;;;;5099574;28;20192;-49
2022/12/19 03:55:12;;;;;;;33.17;23.45;;;-3.00;99.90;;;;;;5044302;28;20564;-52
2022/12/19 03:57:51;;;;;;;32.90;22.20;;;-3.00;99.90;;;;;;5099901;28;20191;-48
2022/12/19 04:00:18;;;;;;;33.20;23.45;;;-2.90;99.90;;;;;;5099886;28;20188;-51
2022/12/19 04:02:48;;;;;;;31.75;24.20;;;-3.00;99.90;;;;;;5098094;28;20547;-49
2022/12/19 04:05:20;;;;;;;31.80;23.20;;;-3.00;99.90;;;;;;5099342;28;20581;-45
2022/12/19 04:07:46;;;;;;;32.97;24.67;;;-2.90;99.90;;;;;;5100021;28;20172;-50
2022/12/19 04:10:15;;;;;;;34.63;23.80;;;-2.90;99.90;;;;;;5099135;28;20226;-48
2022/12/19 04:12:47;;;;;;;34.85;23.63;;;-2.80;99.90;;;;;;5097960;28;20232;-50
2022/12/19 04:15:14;;;;;;;33.90;22.73;;;-2.80;99.90;;;;;;5100652;28;20176;-53
2022/12/19 04:17:57;;;;;;;33.25;23.98;;;-2.80;99.90;;;;;;5099123;28;20693;-50
2022/12/19 04:20:26;;;;;;;33.15;24.05;;;-2.80;99.90;;;;;;5097407;28;20669;-47
2022/12/19 04:23:16;;;;;;;36.42;23.30;;;-2.80;99.90;;;;;;5099258;28;20266;-47
2022/12/19 04:25:46;;;;;;;35.75;23.05;;;-2.80;99.90;;;;;;5099826;28;20343;-46
2022/12/19 04:28:17;;;;;;;38.88;24.77;;;-2.70;99.90;;;;;;5097402;28;20527;-49
2022/12/19 04:30:44;;;;;;;38.58;24.17;;;-2.70;99.90;;;;;;5094565;28;20454;-47
2022/12/19 04:33:10;;;;;;;35.63;24.10;;;-2.60;99.90;;;;;;5091460;28;20233;-48
2022/12/19 04:35:36;;;;;;;32.63;23.90;;;-2.60;99.90;;;;;;5096834;28;20540;-50
2022/12/19 04:38:02;;;;;;;34.35;24.15;;;-2.60;99.90;;;;;;5097802;28;20593;-50
2022/12/19 04:40:28;;;;;;;36.75;25.05;;;-2.60;99.90;;;;;;5096108;28;20184;-47
2022/12/19 04:42:54;;;;;;;33.33;23.80;;;-2.60;99.90;;;;;;5096896;28;20200;-51
2022/12/19 04:45:19;;;;;;;34.67;23.83;;;-2.60;99.90;;;;;;5098135;28;20179;-47
2022/12/19 04:47:45;;;;;;;32.23;23.37;;;-2.60;99.90;;;;;;5098358;28;20478;-52
2022/12/19 04:50:11;;;;;;;34.20;24.03;;;-2.50;99.90;;;;;;5094082;28;20344;-54
2022/12/19 04:52:36;;;;;;;39.57;26.87;;;-2.50;99.90;;;;;;5096361;28;20244;-45
2022/12/19 04:55:02;;;;;;;33.63;22.93;;;-2.50;99.90;;;;;;5097249;28;20444;-46
2022/12/19 04:57:29;;;;;;;38.03;25.13;;;-2.50;99.90;;;;;;5084318;28;20187;-54
2022/12/19 04:59:54;;;;;;;33.03;23.60;;;-2.50;99.90;;;;;;5071978;28;21930;-48
2022/12/19 05:02:20;;;;;;;36.50;26.23;;;-2.50;99.90;;;;;;5067710;28;20710;-48
2022/12/19 05:04:46;;;;;;;32.10;23.20;;;-2.50;99.90;;;;;;5071296;28;21421;-48
2022/12/19 05:07:20;;;;;;;30.30;23.33;;;-2.50;99.90;;;;;;5071930;28;20518;-49
2022/12/19 05:09:45;;;;;;;37.60;23.65;;;-2.50;99.90;;;;;;5082845;28;20183;-50
2022/12/19 05:12:11;;;;;;;34.00;23.97;;;-2.50;99.90;;;;;;5090321;28;20625;-48
2022/12/19 05:14:37;;;;;;;35.37;24.37;;;-2.40;99.90;;;;;;5094524;28;20188;-47
2022/12/19 05:17:02;;;;;;;28.40;21.63;;;-2.50;99.90;;;;;;5094396;28;20239;-53
2022/12/19 05:19:28;;;;;;;32.17;23.80;;;-2.40;99.90;;;;;;5096869;28;20266;-53
2022/12/19 05:21:54;;;;;;;35.57;23.80;;;-2.40;99.90;;;;;;5097221;28;20533;-48
2022/12/19 05:24:19;;;;;;;33.10;24.37;;;-2.40;99.90;;;;;;5097866;28;20238;-52
2022/12/19 05:26:46;;;;;;;37.20;24.30;;;-2.30;99.90;;;;;;5099570;28;20230;-52
2022/12/19 05:29:12;;;;;;;34.35;24.95;;;-2.30;99.90;;;;;;5096470;28;20183;-49
2022/12/19 05:31:37;;;;;;;33.87;25.07;;;-2.20;99.90;;;;;;5099129;28;20175;-48
2022/12/19 05:34:03;;;;;;;30.40;23.77;;;-2.10;99.90;;;;;;5098893;28;20850;-47
2022/12/19 05:36:28;;;;;;;35.13;24.07;;;-2.00;99.90;;;;;;5099841;28;20503;-48
2022/12/19 05:38:54;;;;;;;34.70;25.07;;;-2.00;99.90;;;;;;5099843;28;20193;-45
2022/12/19 05:41:20;;;;;;;31.13;23.30;;;-2.10;99.90;;;;;;5098195;28;20194;-49
2022/12/19 05:43:51;;;;;;;36.72;24.77;;;-2.20;99.90;;;;;;5096803;28;20457;-47
2022/12/19 05:46:17;;;;;;;37.85;24.60;;;-2.20;99.90;;;;;;5096094;28;20178;-48
2022/12/19 05:48:42;;;;;;;36.40;25.63;;;-2.20;99.90;;;;;;5099746;28;20184;-46
2022/12/19 05:51:08;;;;;;;37.60;26.77;;;-2.30;99.90;;;;;;5099648;28;20199;-50
2022/12/19 05:53:35;;;;;;;38.53;26.30;;;-2.30;99.90;;;;;;5099880;28;20192;-49
2022/12/19 05:56:08;;;;;;;35.72;24.42;;;-2.30;99.90;;;;;;5098654;28;20557;-49
2022/12/19 05:58:34;;;;;;;35.35;24.67;;;-2.30;99.90;;;;;;5099341;28;20244;-48
2022/12/19 06:01:02;;;;;;;34.05;24.10;;;-2.30;99.90;;;;;;5097884;28;20659;-47
2022/12/19 06:03:28;;;;;;;35.03;25.90;;;-2.30;99.90;;;;;;5097760;28;20207;-49
2022/12/19 06:05:53;;;;;;;34.87;25.37;;;-2.30;99.90;;;;;;5099201;28;20736;-48
2022/12/19 06:08:19;;;;;;;35.97;25.83;;;-2.30;99.90;;;;;;5099347;28;20338;-50
2022/12/19 06:10:44;;;;;;;38.27;24.53;;;-2.30;99.90;;;;;;5098745;28;20582;-53
2022/12/19 06:13:10;;;;;;;36.40;24.50;;;-2.20;99.90;;;;;;5098566;28;20184;-48
2022/12/19 06:15:35;;;;;;;33.70;24.70;;;-2.10;99.90;;;;;;5102580;28;20230;-47
2022/12/19 06:18:01;;;;;;;34.70;26.17;;;-2.10;99.90;;;;;;5102951;28;20206;-45
2022/12/19 06:20:27;;;;;;;35.77;26.07;;;-2.10;99.90;;;;;;5101348;28;20183;-48
2022/12/19 06:22:52;;;;;;;37.70;26.70;;;-2.10;99.90;;;;;;5103466;28;20599;-48
2022/12/19 06:25:18;;;;;;;35.63;25.67;;;-2.00;99.90;;;;;;5101962;28;20180;-50
2022/12/19 06:27:43;;;;;;;34.83;25.07;;;-2.00;99.90;;;;;;5101940;28;20958;-48
2022/12/19 06:30:09;;;;;;;38.73;25.03;;;-2.10;99.90;;;;;;5103163;28;20206;-49
2022/12/19 06:32:35;;;;;;;37.25;26.40;;;-2.00;99.90;;;;;;5102685;28;20184;-51
2022/12/19 06:35:01;;;;;;;39.60;26.03;;;-2.00;99.90;;;;;;5102416;28;20270;-51
2022/12/19 06:37:26;;;;;;;36.00;25.77;;;-2.00;99.90;;;;;;5101874;28;20248;-48
2022/12/19 06:39:52;;;;;;;41.20;25.47;;;-2.00;99.90;;;;;;5102484;28;20593;-50
2022/12/19 06:42:23;;;;;;;37.97;28.33;;;-2.00;99.90;;;;;;5100339;28;20651;-51
2022/12/19 06:44:51;;;;;;;37.90;26.80;;;-2.00;99.90;;;;;;5102572;28;20226;-46
2022/12/19 06:47:16;;;;;;;41.15;27.38;;;-1.90;99.90;;;;;;5102056;28;20657;-49
2022/12/19 06:49:42;;;;;;;38.23;27.43;;;-1.90;99.90;;;;;;5100472;28;20186;-48
2022/12/19 06:52:08;;;;;;;36.97;26.30;;;-1.90;99.90;;;;;;5101552;28;20437;-51
2022/12/19 06:54:33;;;;;;;38.60;27.30;;;-1.80;99.90;;;;;;5101847;28;20237;-52
2022/12/19 06:57:00;;;;;;;41.83;28.83;;;-1.80;99.90;;;;;;5102320;28;20183;-49
2022/12/19 06:59:25;;;;;;;37.40;27.77;;;-1.80;99.90;;;;;;5100651;28;20538;-48
2022/12/19 07:02:14;;;;;;;46.73;29.10;;;-1.80;99.90;;;;;;5102164;28;20188;-46
2022/12/19 07:04:44;;;;;;;38.90;27.88;;;-1.80;99.90;;;;;;5102908;28;20607;-47
2022/12/19 07:07:10;;;;;;;44.42;27.85;;;-1.80;99.90;;;;;;5102395;28;20180;-51
2022/12/19 07:09:36;;;;;;;42.50;29.53;;;-1.70;99.90;;;;;;5102385;28;20184;-55
2022/12/19 07:12:02;;;;;;;40.50;28.57;;;-1.70;99.90;;;;;;5102175;28;20180;-49
2022/12/19 07:14:27;;;;;;;36.83;26.13;;;-1.70;99.90;;;;;;5102050;28;20823;-47
2022/12/19 07:16:54;;;;;;;41.67;27.67;;;-1.70;99.90;;;;;;5100801;28;20514;-49
2022/12/19 07:19:21;;;;;;;42.70;28.13;;;-1.60;99.90;;;;;;5100360;28;20188;-49
2022/12/19 07:21:47;;;;;;;45.35;28.33;;;-1.70;99.90;;;;;;5101101;28;20657;-48
2022/12/19 07:24:13;;;;;;;37.97;27.67;;;-1.60;99.90;;;;;;5101424;28;20207;-52
2022/12/19 07:26:41;;;;;;;41.88;26.88;;;-1.60;99.90;;;;;;5101685;28;20520;-50
2022/12/19 07:29:08;;;;;;;42.80;28.20;;;-1.60;99.90;;;;;;5101926;28;20310;-46
2022/12/19 07:31:34;;;;;;;38.42;26.92;;;-1.50;99.90;;;;;;5101912;28;20199;-49
2022/12/19 07:33:59;;;;;;;40.00;26.87;;;-1.50;99.90;;;;;;5101876;28;20184;-53
2022/12/19 07:36:25;;;;;;;42.70;27.50;;;-1.40;99.90;;;;;;5102250;28;20180;-52
2022/12/19 07:38:50;;;;;;;41.07;26.07;;;-1.40;99.90;;;;;;5100719;28;20351;-57
2022/12/19 07:41:16;;;;;;;37.07;28.70;;;-1.40;99.90;;;;;;5101550;28;20202;-48
2022/12/19 07:43:44;;;;;;;36.87;28.00;;;-1.40;99.90;;;;;;5101031;28;20223;-49
2022/12/19 07:46:10;;;;;;;36.40;24.95;;;-1.40;99.90;;;;;;5099620;28;20590;-48
2022/12/19 07:48:35;;;;;;;40.53;27.67;;;-1.40;99.90;;;;;;5097879;28;20179;-49
2022/12/19 07:51:01;;;;;;;34.33;26.13;;;-1.30;99.90;;;;;;5100895;27;20184;-49
2022/12/19 07:53:27;;;;;;;37.73;26.60;;;-1.30;99.90;;;;;;5099929;28;20653;-48
2022/12/19 07:55:52;;;;;;;39.43;28.00;;;-1.30;99.90;;;;;;5100783;28;20176;-51
2022/12/19 07:58:18;;;;;;;38.13;25.57;;;-1.20;99.90;;;;;;5100899;28;20862;-47
2022/12/19 08:00:43;;;;;;;36.83;26.57;;;-1.10;99.90;;;;;;5101539;28;20644;-50
2022/12/19 08:03:09;;;;;;;37.40;26.07;;;-1.10;99.90;;;;;;5101099;28;20409;-51
2022/12/19 08:05:35;;;;;;;37.13;27.47;;;-1.10;99.90;;;;;;5101500;28;20244;-49
2022/12/19 08:08:00;;;;;;;44.57;28.53;;;-1.10;99.90;;;;;;5100855;28;20183;-50
2022/12/19 08:10:26;;;;;;;39.73;27.20;;;-1.00;99.90;;;;;;5100956;28;20698;-50
2022/12/19 08:12:51;;;;;;;43.53;27.90;;;-1.00;99.90;;;;;;5100788;28;20190;-49
2022/12/19 08:15:17;;;;;;;34.37;26.27;;;-1.00;99.90;;;;;;5099733;28;21032;-49
2022/12/19 08:17:43;;;;;;;43.92;27.63;;;-1.00;99.90;;;;;;5100432;28;20625;-47
2022/12/19 08:20:12;;;;;;;39.10;28.10;;;-1.00;99.90;;;;;;5100811;28;20179;-49
2022/12/19 08:22:38;;;;;;;38.75;26.83;;;-0.90;99.90;;;;;;5100577;28;20325;-52
2022/12/19 08:25:05;;;;;;;45.37;28.80;;;-0.90;99.90;;;;;;5100577;28;20192;-47
2022/12/19 08:27:30;;;;;;;37.38;28.65;;;-0.80;99.90;;;;;;5100979;28;20187;-46
2022/12/19 08:29:56;;;;;;;37.33;26.10;;;-0.80;99.90;;;;;;5098400;28;20535;-45
2022/12/19 08:32:22;;;;;;;36.40;24.93;;;-0.80;99.90;;;;;;5099356;28;20180;-50
2022/12/19 08:34:48;;;;;;;35.30;25.37;;;-0.70;99.90;;;;;;5100173;28;20223;-51
2022/12/19 08:37:14;;;;;;;35.65;26.10;;;-0.70;99.90;;;;;;5100053;28;20195;-50
2022/12/19 08:39:39;;;;;;;39.03;26.00;;;-0.70;99.90;;;;;;5099685;28;20711;-51
2022/12/19 08:42:05;;;;;;;38.60;26.97;;;-0.60;99.90;;;;;;5100344;28;20237;-50
2022/12/19 08:44:30;;;;;;;35.73;25.40;;;-0.60;99.90;;;;;;5100126;28;20204;-50
2022/12/19 08:46:56;;;;;;;41.23;28.07;;;-0.50;99.90;;;;;;5098737;28;20545;-47
2022/12/19 08:49:21;;;;;;;36.77;27.30;;;-0.40;99.90;;;;;;5100380;28;20183;-52
2022/12/19 08:51:47;;;;;;;47.27;27.17;;;-0.40;99.90;;;;;;5100485;28;20282;-51
2022/12/19 08:54:13;;;;;;;34.43;25.70;;;-0.40;99.90;;;;;;5100183;28;20176;-49
2022/12/19 08:56:39;;;;;;;39.87;26.57;;;-0.30;99.90;;;;;;5100019;28;20265;-53
2022/12/19 08:59:05;;;;;;;42.50;27.70;;;-0.30;99.90;;;;;;5099261;28;20715;-52
2022/12/19 09:01:30;;;;;;;37.70;26.70;;;-0.30;99.90;;;;;;5099848;28;20833;-52
2022/12/19 09:03:59;;;;;;;36.07;28.50;;;-0.30;99.90;;;;;;5100166;28;20320;-50
2022/12/19 09:06:25;;;;;;;37.58;26.35;;;-0.30;99.90;;;;;;5099925;28;20195;-49
2022/12/19 09:08:51;;;;;;;41.45;27.50;;;-0.20;99.90;;;;;;5099909;28;20192;-49
2022/12/19 09:11:19;;;;;;;35.97;26.90;;;-0.10;99.90;;;;;;5100279;28;20188;-51
2022/12/19 09:13:46;;;;;;;38.65;28.17;;;-0.10;99.90;;;;;;5099670;28;20218;-52
2022/12/19 09:16:18;;;;;;;39.67;26.77;;;-0.10;99.90;;;;;;5099729;28;20277;-51
2022/12/19 09:18:46;;;;;;;38.30;27.00;;;-0.10;99.90;;;;;;5099873;28;20568;-56
2022/12/19 09:21:15;;;;;;;40.22;27.60;;;0.00;99.90;;;;;;5099953;28;20184;-51
2022/12/19 09:23:41;;;;;;;43.13;29.30;;;0.00;99.90;;;;;;5099337;28;20661;-51
2022/12/19 09:26:09;;;;;;;39.35;28.25;;;0.00;99.90;;;;;;5100334;28;20233;-49
2022/12/19 09:28:36;;;;;;;39.80;29.15;;;0.10;99.90;;;;;;5097291;28;20184;-51
2022/12/19 09:31:04;;;;;;;45.00;30.70;;;0.10;99.90;;;;;;5099867;28;20193;-50
2022/12/19 09:33:32;;;;;;;40.08;28.35;;;0.10;99.90;;;;;;5099626;28;20187;-50
2022/12/19 09:35:59;;;;;;;39.15;28.35;;;0.20;99.90;;;;;;5099967;28;20519;-55
2022/12/19 09:38:25;;;;;;;38.38;27.35;;;0.30;99.90;;;;;;5099014;28;20208;-51
2022/12/19 09:40:57;;;;;;;45.42;31.35;;;0.20;99.90;;;;;;5099675;28;20744;-49
2022/12/19 09:43:41;;;;;;;40.35;27.75;;;0.30;99.90;;;;;;5099406;28;20207;-50
2022/12/19 09:46:18;;;;;;;42.97;29.20;;;0.30;99.90;;;;;;5099377;28;20862;-48
2022/12/19 09:48:46;;;;;;;46.88;30.40;;;0.30;99.90;;;;;;5103929;28;20172;-50
2022/12/19 09:51:38;;;;;;;42.13;29.90;;;0.40;99.90;;;;;;5103702;28;20200;-49
2022/12/19 09:54:17;;;;;;;45.05;33.00;;;0.30;99.90;;;;;;5103988;28;20597;-50
2022/12/19 09:56:44;;;;;;;37.92;28.38;;;0.30;99.90;;;;;;5100042;28;20196;-46
2022/12/19 09:59:28;;;;;;;40.10;27.67;;;0.40;99.90;;;;;;5102497;28;20299;-50
2022/12/19 10:02:21;;;;;;;38.00;28.42;;;0.40;99.90;;;;;;5102778;28;20661;-47
2022/12/19 10:04:50;;;;;;;38.08;27.50;;;0.40;99.90;;;;;;5103193;28;20204;-48
2022/12/19 10:07:18;;;;;;;42.25;29.10;;;0.50;99.90;;;;;;5101644;28;20184;-48
2022/12/19 10:09:44;;;;;;;42.22;30.17;;;0.50;99.90;;;;;;5103668;28;20184;-49
2022/12/19 10:12:13;;;;;;;39.92;28.85;;;0.50;99.90;;;;;;5103089;28;20536;-49
2022/12/19 10:14:47;;;;;;;42.90;30.35;;;0.60;99.90;;;;;;5103323;28;20187;-50
2022/12/19 10:17:24;;;;;;;37.45;28.23;;;0.70;99.90;;;;;;5103097;28;20311;-50
2022/12/19 10:19:56;;;;;;;37.63;28.00;;;0.80;99.90;;;;;;5102773;28;20188;-51
2022/12/19 10:22:43;;;;;;;37.95;28.52;;;0.80;99.90;;;;;;5103177;28;20189;-48
2022/12/19 10:25:45;;;;;;;39.97;27.13;;;0.90;99.90;;;;;;5101702;28;20860;-48
2022/12/19 10:28:18;;;;;;;37.15;28.25;;;1.00;99.90;;;;;;5102486;28;20320;-51
2022/12/19 10:31:14;;;;;;;38.88;29.35;;;0.90;99.90;;;;;;5102707;28;20288;-50
2022/12/19 10:33:43;;;;;;;37.88;29.40;;;0.90;99.90;;;;;;5103130;28;20281;-49
2022/12/19 10:36:10;;;;;;;41.72;28.60;;;0.90;99.90;;;;;;5103106;28;20246;-47
2022/12/19 10:39:00;;;;;;;37.63;29.58;;;1.00;99.90;;;;;;5103001;28;20675;-51
2022/12/19 10:41:33;;;;;;;38.08;27.63;;;1.00;99.90;;;;;;5103063;28;20662;-48
2022/12/19 10:44:09;;;;;;;35.72;27.15;;;1.10;99.90;;;;;;5102656;28;20471;-45
2022/12/19 10:46:45;;;;;;;41.42;28.52;;;1.20;99.90;;;;;;5101963;28;20172;-47
2022/12/19 10:49:15;;;;;;;34.05;27.60;;;1.40;99.90;;;;;;5102131;28;20713;-49
2022/12/19 10:51:50;;;;;;;39.00;28.90;;;1.50;99.90;;;;;;5102768;28;20281;-49
2022/12/19 10:54:16;;;;;;;36.70;27.80;;;1.70;99.90;;;;;;5102760;27;20659;-50
2022/12/19 10:56:42;;;;;;;39.90;28.77;;;1.70;99.90;;;;;;5101104;28;20303;-51
2022/12/19 10:59:16;;;;;;;36.93;28.43;;;1.90;99.90;;;;;;5099130;28;20460;-48
2022/12/19 11:01:43;;;;;;;37.83;28.13;;;1.80;99.90;;;;;;5101729;28;20182;-48
2022/12/19 11:04:29;;;;;;;41.85;30.50;;;1.80;99.90;;;;;;5102342;28;20539;-48
2022/12/19 11:07:03;;;;;;;40.90;27.52;;;1.70;99.90;;;;;;5102229;28;20619;-48
2022/12/19 11:09:38;;;;;;;42.10;29.73;;;1.60;99.90;;;;;;5102378;28;20182;-49
2022/12/19 11:12:06;;;;;;;37.42;28.00;;;1.60;99.90;;;;;;5102908;28;20181;-47
2022/12/19 11:14:33;;;;;;;39.67;28.65;;;1.60;99.90;;;;;;5103567;28;20671;-50
2022/12/19 11:16:59;;;;;;;38.67;29.95;;;1.60;99.90;;;;;;5104067;28;20566;-53
2022/12/19 11:19:36;;;;;;;36.38;27.15;;;1.70;99.90;;;;;;5103272;28;20185;-48
2022/12/19 11:22:13;;;;;;;37.30;27.45;;;1.70;99.90;;;;;;5102039;28;20514;-49
2022/12/19 11:24:45;;;;;;;40.33;28.27;;;1.70;99.90;;;;;;5100728;28;20635;-47
2022/12/19 11:27:41;;;;;;;33.97;26.92;;;1.50;99.90;;;;;;5101637;28;20653;-47
2022/12/19 11:30:28;;;;;;;32.80;26.77;;;1.50;99.90;;;;;;5101891;28;20562;-58
2022/12/19 11:33:14;;;;;;;36.78;28.02;;;1.60;99.90;;;;;;5101511;28;20720;-51
2022/12/19 11:35:50;;;;;;;38.90;27.40;;;1.70;99.90;;;;;;5101689;28;20214;-47
2022/12/19 11:38:36;;;;;;;38.25;27.10;;;1.70;99.90;;;;;;5101125;28;20813;-51
2022/12/19 11:41:13;;;;;;;38.83;28.90;;;1.70;99.90;;;;;;5101412;28;20539;-46
2022/12/19 11:44:11;;;;;;;38.88;28.13;;;1.60;99.90;;;;;;5101835;28;20349;-56
2022/12/19 11:46:43;;;;;;;38.55;29.15;;;1.60;99.90;;;;;;5099529;28;20940;-51
2022/12/19 11:49:21;;;;;;;39.08;29.00;;;1.70;99.90;;;;;;5101195;28;20399;-54
2022/12/19 11:52:14;;;;;;;39.50;28.27;;;1.80;99.90;;;;;;5101515;28;20270;-47
2022/12/19 11:55:19;;;;;;;40.83;28.52;;;1.60;99.90;;;;;;5101479;28;20197;-49
2022/12/19 11:57:46;;;;;;;37.95;28.88;;;1.70;99.90;;;;;;5101307;28;20206;-51
2022/12/19 12:00:17;;;;;;;38.38;28.23;;;1.70;99.90;;;;;;5101107;28;20269;-48
2022/12/19 12:03:26;;;;;;;40.70;28.85;;;1.50;99.90;;;;;;5101125;28;20399;-50
2022/12/19 12:05:54;;;;;;;40.38;29.33;;;1.50;99.90;;;;;;5101468;28;20543;-54
2022/12/19 12:08:31;;;;;;;36.95;27.77;;;1.70;99.90;;;;;;5101231;28;20186;-50
2022/12/19 12:11:18;;;;;;;40.58;29.75;;;1.60;99.90;;;;;;5100083;28;20197;-49
2022/12/19 12:13:57;;;;;;;40.20;29.30;;;1.60;99.90;;;;;;5101375;28;20209;-56
2022/12/19 12:16:34;;;;;;;39.55;30.20;;;1.50;99.90;;;;;;5099721;28;20232;-47
2022/12/19 12:19:24;;;;;;;40.50;29.98;;;1.50;99.90;;;;;;5099716;28;20182;-49
2022/12/19 12:22:39;;;;;;;43.38;29.30;;;1.50;99.90;;;;;;5100948;27;20211;-48
2022/12/19 12:25:33;;;;;;;40.05;28.55;;;1.40;99.90;;;;;;5028488;28;20237;-48
2022/12/19 12:28:10;;;;;;;41.85;29.13;;;1.40;99.90;;;;;;5099913;28;20235;-47
2022/12/19 12:30:57;;;;;;;38.45;28.25;;;1.30;99.90;;;;;;5100444;28;20264;-48
2022/12/19 12:34:04;;;;;;;41.03;28.30;;;1.30;99.90;;;;;;5100844;28;20916;-50
2022/12/19 12:36:39;;;;;;;39.42;27.70;;;1.40;99.90;;;;;;5061849;28;20233;-50
2022/12/19 12:39:22;;;;;;;36.13;26.30;;;1.40;99.90;;;;;;5100769;28;20266;-47
2022/12/19 12:42:04;;;;;;;39.25;27.58;;;1.30;99.90;;;;;;5100408;28;20178;-47
2022/12/19 12:44:35;;;;;;;38.03;29.27;;;1.40;99.90;;;;;;5098800;28;20563;-51
2022/12/19 12:47:04;;;;;;;38.78;28.05;;;1.50;99.90;;;;;;5100230;28;20187;-49
2022/12/19 12:49:37;;;;;;;39.03;29.55;;;1.40;99.90;;;;;;5100659;28;20273;-48
2022/12/19 12:52:06;;;;;;;39.05;28.98;;;1.40;99.90;;;;;;5100422;28;20212;-48
2022/12/19 12:54:36;;;;;;;41.25;30.60;;;1.50;99.90;;;;;;5100445;28;20252;-48
2022/12/19 12:57:02;;;;;;;39.47;29.67;;;1.40;99.90;;;;;;5099968;27;20285;-48